sensor_id;sensor_type;location;lat;lon;timestamp;pressure;altitude;pressure_sealevel;temperature;humidity
41383;BME280;27971;53.902;9.118;2022-11-04T00:05:29;100009.0;;;20.38;28.13
41383;BME280;27971;53.902;9.118;2022-11-04T00:07:32;100005.0;;;20.74;27.25
41383;BME280;27971;53.902;9.118;2022-11-04T00:09:35;99998.0;;;21.17;26.51
41383;BME280;27971;53.902;9.118;2022-11-04T00:11:37;99993.0;;;21.61;25.94
41383;BME280;27971;53.902;9.118;2022-11-04T00:13:40;99991.0;;;22.29;25.73
41383;BME280;27971;53.902;9.118;2022-11-04T00:15:43;99991.0;;;22.6;25.64
41383;BME280;27971;53.902;9.118;2022-11-04T00:17:45;99993.0;;;22.49;25.55
41383;BME280;27971;53.902;9.118;2022-11-04T00:19:49;99996.0;;;22.49;25.81
41383;BME280;27971;53.902;9.118;2022-11-04T00:21:50;99995.0;;;22.81;25.71
41383;BME280;27971;53.902;9.118;2022-11-04T00:23:54;99992.0;;;22.34;25.85
41383;BME280;27971;53.902;9.118;2022-11-04T00:25:56;99987.0;;;22.52;25.84
41383;BME280;27971;53.902;9.118;2022-11-04T00:28:05;99990.0;;;22.27;25.84
41383;BME280;27971;53.902;9.118;2022-11-04T00:30:05;99988.0;;;22.67;25.79
41383;BME280;27971;53.902;9.118;2022-11-04T00:32:06;99985.0;;;22.55;25.87
41383;BME280;27971;53.902;9.118;2022-11-04T00:34:09;99982.0;;;22.39;25.74
41383;BME280;27971;53.902;9.118;2022-11-04T00:36:12;99982.0;;;22.44;25.82
41383;BME280;27971;53.902;9.118;2022-11-04T00:38:15;99983.0;;;22.42;25.72
41383;BME280;27971;53.902;9.118;2022-11-04T00:40:18;99983.0;;;22.7;25.78
41383;BME280;27971;53.902;9.118;2022-11-04T00:42:21;99984.0;;;22.17;25.9
41383;BME280;27971;53.902;9.118;2022-11-04T00:44:24;99980.0;;;22.33;25.76
41383;BME280;27971;53.902;9.118;2022-11-04T00:46:29;99973.0;;;22.42;25.6
41383;BME280;27971;53.902;9.118;2022-11-04T00:48:31;99967.0;;;22.39;25.69
41383;BME280;27971;53.902;9.118;2022-11-04T00:50:34;99966.0;;;22.67;25.74
41383;BME280;27971;53.902;9.118;2022-11-04T00:52:37;99966.0;;;22.84;25.86
41383;BME280;27971;53.902;9.118;2022-11-04T00:54:41;99964.0;;;22.88;25.98
41383;BME280;27971;53.902;9.118;2022-11-04T00:56:43;99964.0;;;22.49;26.18
41383;BME280;27971;53.902;9.118;2022-11-04T00:58:46;99965.0;;;22.25;26.05
41383;BME280;27971;53.902;9.118;2022-11-04T01:00:49;99964.0;;;22.29;25.96
41383;BME280;27971;53.902;9.118;2022-11-04T01:02:51;99963.0;;;22.07;26.12
41383;BME280;27971;53.902;9.118;2022-11-04T01:04:55;99962.0;;;22.08;25.96
41383;BME280;27971;53.902;9.118;2022-11-04T01:06:57;99960.0;;;22.09;25.74
41383;BME280;27971;53.902;9.118;2022-11-04T01:09:02;99958.0;;;22.23;25.56
41383;BME280;27971;53.902;9.118;2022-11-04T01:11:04;99960.0;;;22.27;25.64
41383;BME280;27971;53.902;9.118;2022-11-04T01:13:06;99961.0;;;22.37;25.58
41383;BME280;27971;53.902;9.118;2022-11-04T01:15:10;99960.0;;;22.22;25.67
41383;BME280;27971;53.902;9.118;2022-11-04T01:17:12;99960.0;;;22.23;25.59
41383;BME280;27971;53.902;9.118;2022-11-04T01:19:14;99956.0;;;22.3;25.44
41383;BME280;27971;53.902;9.118;2022-11-04T01:21:17;99947.0;;;22.47;25.34
41383;BME280;27971;53.902;9.118;2022-11-04T01:23:19;99943.0;;;22.44;25.3
41383;BME280;27971;53.902;9.118;2022-11-04T01:25:22;99940.0;;;22.46;25.25
41383;BME280;27971;53.902;9.118;2022-11-04T01:27:25;99936.0;;;22.59;25.21
41383;BME280;27971;53.902;9.118;2022-11-04T01:29:28;99936.0;;;22.24;25.6
41383;BME280;27971;53.902;9.118;2022-11-04T01:31:31;99936.0;;;22.44;25.41
41383;BME280;27971;53.902;9.118;2022-11-04T01:33:33;99937.0;;;22.59;25.27
41383;BME280;27971;53.902;9.118;2022-11-04T01:35:36;99939.0;;;22.42;25.39
41383;BME280;27971;53.902;9.118;2022-11-04T01:37:39;99937.0;;;22.2;25.59
41383;BME280;27971;53.902;9.118;2022-11-04T01:39:41;99935.0;;;22.17;25.62
41383;BME280;27971;53.902;9.118;2022-11-04T01:41:45;99935.0;;;22.19;25.54
41383;BME280;27971;53.902;9.118;2022-11-04T01:43:51;99937.0;;;22.58;25.39
41383;BME280;27971;53.902;9.118;2022-11-04T01:45:53;99938.0;;;22.63;25.27
41383;BME280;27971;53.902;9.118;2022-11-04T01:47:58;99935.0;;;22.46;25.4
41383;BME280;27971;53.902;9.118;2022-11-04T01:50:00;99934.0;;;22.5;25.34
41383;BME280;27971;53.902;9.118;2022-11-04T01:52:04;99934.0;;;22.19;25.36
41383;BME280;27971;53.902;9.118;2022-11-04T01:54:04;99932.0;;;22.59;25.15
41383;BME280;27971;53.902;9.118;2022-11-04T01:56:10;99932.0;;;22.32;25.17
41383;BME280;27971;53.902;9.118;2022-11-04T01:58:12;99934.0;;;22.23;25.28
41383;BME280;27971;53.902;9.118;2022-11-04T02:00:14;99937.0;;;22.24;25.19
41383;BME280;27971;53.902;9.118;2022-11-04T02:02:15;99935.0;;;22.45;25.07
41383;BME280;27971;53.902;9.118;2022-11-04T02:04:18;99935.0;;;22.29;25.12
41383;BME280;27971;53.902;9.118;2022-11-04T02:06:21;99936.0;;;22.36;25.02
41383;BME280;27971;53.902;9.118;2022-11-04T02:08:24;99934.0;;;22.13;25.29
41383;BME280;27971;53.902;9.118;2022-11-04T02:10:29;99921.0;;;21.87;25.52
41383;BME280;27971;53.902;9.118;2022-11-04T02:12:30;99910.0;;;21.52;25.73
41383;BME280;27971;53.902;9.118;2022-11-04T02:14:34;99905.0;;;21.3;25.91
41383;BME280;27971;53.902;9.118;2022-11-04T02:16:42;99900.0;;;21.16;26.01
41383;BME280;27971;53.902;9.118;2022-11-04T02:18:49;99907.0;;;21.31;25.87
41383;BME280;27971;53.902;9.118;2022-11-04T02:20:55;99922.0;;;21.19;25.99
41383;BME280;27971;53.902;9.118;2022-11-04T02:23:02;99924.0;;;21.65;25.65
41383;BME280;27971;53.902;9.118;2022-11-04T02:25:02;99921.0;;;21.84;25.45
41383;BME280;27971;53.902;9.118;2022-11-04T02:27:32;99917.0;;;21.97;25.47
41383;BME280;27971;53.902;9.118;2022-11-04T02:29:17;99916.0;;;25.48;26.11
41383;BME280;27971;53.902;9.118;2022-11-04T02:31:00;99919.0;;;25.26;27.05
41383;BME280;27971;53.902;9.118;2022-11-04T02:33:09;99921.0;;;24.82;27.76
41383;BME280;27971;53.902;9.118;2022-11-04T02:35:02;99909.0;;;24.55;28.34
41383;BME280;27971;53.902;9.118;2022-11-04T02:37:08;99898.0;;;24.2;28.71
41383;BME280;27971;53.902;9.118;2022-11-04T02:39:13;99891.0;;;24.28;28.83
41383;BME280;27971;53.902;9.118;2022-11-04T02:41:15;99883.0;;;24.28;28.98
41383;BME280;27971;53.902;9.118;2022-11-04T02:43:20;99880.0;;;24.37;28.96
41383;BME280;27971;53.902;9.118;2022-11-04T02:45:18;99881.0;;;24.31;29.08
41383;BME280;27971;53.902;9.118;2022-11-04T02:47:21;99887.0;;;24.21;29.16
41383;BME280;27971;53.902;9.118;2022-11-04T02:49:26;99886.0;;;24.26;29.13
41383;BME280;27971;53.902;9.118;2022-11-04T02:51:26;99881.0;;;24.33;29.11
41383;BME280;27971;53.902;9.118;2022-11-04T02:53:31;99880.0;;;24.18;29.2
41383;BME280;27971;53.902;9.118;2022-11-04T02:55:34;99885.0;;;24.39;29.07
41383;BME280;27971;53.902;9.118;2022-11-04T02:57:36;99893.0;;;24.22;29.08
41383;BME280;27971;53.902;9.118;2022-11-04T02:59:39;99899.0;;;24.07;29.29
41383;BME280;27971;53.902;9.118;2022-11-04T03:01:41;99897.0;;;24.25;29.15
41383;BME280;27971;53.902;9.118;2022-11-04T03:03:46;99896.0;;;24.24;29.02
41383;BME280;27971;53.902;9.118;2022-11-04T03:05:47;99895.0;;;24.14;29.18
41383;BME280;27971;53.902;9.118;2022-11-04T03:07:50;99890.0;;;24.43;29.08
41383;BME280;27971;53.902;9.118;2022-11-04T03:09:54;99891.0;;;24.4;29.09
41383;BME280;27971;53.902;9.118;2022-11-04T03:11:56;99890.0;;;24.61;29.1
41383;BME280;27971;53.902;9.118;2022-11-04T03:13:58;99888.0;;;24.55;29.09
41383;BME280;27971;53.902;9.118;2022-11-04T03:16:01;99886.0;;;24.27;29.47
41383;BME280;27971;53.902;9.118;2022-11-04T03:18:12;99887.0;;;24.15;29.64
41383;BME280;27971;53.902;9.118;2022-11-04T03:20:08;99886.0;;;24.28;29.66
41383;BME280;27971;53.902;9.118;2022-11-04T03:22:10;99880.0;;;24.42;29.48
41383;BME280;27971;53.902;9.118;2022-11-04T03:24:09;99877.0;;;24.35;29.5
41383;BME280;27971;53.902;9.118;2022-11-04T03:26:19;99876.0;;;24.05;29.7
41383;BME280;27971;53.902;9.118;2022-11-04T03:28:24;99876.0;;;24.41;29.59
41383;BME280;27971;53.902;9.118;2022-11-04T03:30:19;99873.0;;;24.41;29.51
41383;BME280;27971;53.902;9.118;2022-11-04T03:32:23;99875.0;;;24.11;29.63
41383;BME280;27971;53.902;9.118;2022-11-04T03:34:24;99877.0;;;24.28;29.61
41383;BME280;27971;53.902;9.118;2022-11-04T03:36:26;99886.0;;;24.19;29.61
41383;BME280;27971;53.902;9.118;2022-11-04T03:38:29;99892.0;;;24.12;29.67
41383;BME280;27971;53.902;9.118;2022-11-04T03:40:31;99893.0;;;23.9;29.8
41383;BME280;27971;53.902;9.118;2022-11-04T03:42:37;99891.0;;;23.95;29.7
41383;BME280;27971;53.902;9.118;2022-11-04T03:44:37;99888.0;;;24.01;29.73
41383;BME280;27971;53.902;9.118;2022-11-04T03:46:39;99884.0;;;23.89;29.77
41383;BME280;27971;53.902;9.118;2022-11-04T03:48:42;99884.0;;;24.03;29.72
41383;BME280;27971;53.902;9.118;2022-11-04T03:50:46;99884.0;;;23.77;29.83
41383;BME280;27971;53.902;9.118;2022-11-04T03:52:47;99884.0;;;23.65;29.94
41383;BME280;27971;53.902;9.118;2022-11-04T03:54:49;99882.0;;;23.69;29.99
41383;BME280;27971;53.902;9.118;2022-11-04T03:57:02;99883.0;;;23.79;29.85
41383;BME280;27971;53.902;9.118;2022-11-04T03:59:09;99887.0;;;23.93;29.87
41383;BME280;27971;53.902;9.118;2022-11-04T04:01:06;99887.0;;;23.98;29.93
41383;BME280;27971;53.902;9.118;2022-11-04T04:03:06;99894.0;;;23.93;29.82
41383;BME280;27971;53.902;9.118;2022-11-04T04:05:09;99893.0;;;23.73;30.03
41383;BME280;27971;53.902;9.118;2022-11-04T04:07:12;99894.0;;;23.67;30.0
41383;BME280;27971;53.902;9.118;2022-11-04T04:09:15;99891.0;;;23.69;30.03
41383;BME280;27971;53.902;9.118;2022-11-04T04:11:18;99891.0;;;23.66;29.97
41383;BME280;27971;53.902;9.118;2022-11-04T04:13:24;99894.0;;;23.77;29.87
41383;BME280;27971;53.902;9.118;2022-11-04T04:15:22;99894.0;;;23.65;29.88
41383;BME280;27971;53.902;9.118;2022-11-04T04:17:26;99897.0;;;23.74;29.89
41383;BME280;27971;53.902;9.118;2022-11-04T04:19:24;99903.0;;;23.66;30.01
41383;BME280;27971;53.902;9.118;2022-11-04T04:21:29;99907.0;;;23.58;29.96
41383;BME280;27971;53.902;9.118;2022-11-04T04:23:31;99916.0;;;23.6;30.0
41383;BME280;27971;53.902;9.118;2022-11-04T04:25:32;99915.0;;;23.55;29.96
41383;BME280;27971;53.902;9.118;2022-11-04T04:27:34;99917.0;;;23.51;30.0
41383;BME280;27971;53.902;9.118;2022-11-04T04:29:37;99922.0;;;23.56;30.03
41383;BME280;27971;53.902;9.118;2022-11-04T04:31:40;99926.0;;;23.67;29.98
41383;BME280;27971;53.902;9.118;2022-11-04T04:33:42;99936.0;;;23.48;29.9
41383;BME280;27971;53.902;9.118;2022-11-04T04:35:48;99942.0;;;23.56;30.02
41383;BME280;27971;53.902;9.118;2022-11-04T04:37:48;99945.0;;;23.56;30.08
41383;BME280;27971;53.902;9.118;2022-11-04T04:39:53;99947.0;;;23.47;30.02
41383;BME280;27971;53.902;9.118;2022-11-04T04:41:54;99951.0;;;23.48;30.06
41383;BME280;27971;53.902;9.118;2022-11-04T04:43:57;99955.0;;;23.55;30.06
41383;BME280;27971;53.902;9.118;2022-11-04T04:46:00;99954.0;;;23.42;30.11
41383;BME280;27971;53.902;9.118;2022-11-04T04:48:04;99958.0;;;23.59;30.06
41383;BME280;27971;53.902;9.118;2022-11-04T04:50:06;99961.0;;;23.46;30.09
41383;BME280;27971;53.902;9.118;2022-11-04T04:52:08;99961.0;;;23.25;30.1
41383;BME280;27971;53.902;9.118;2022-11-04T04:54:12;99966.0;;;23.4;30.08
41383;BME280;27971;53.902;9.118;2022-11-04T04:56:14;99971.0;;;23.36;30.07
41383;BME280;27971;53.902;9.118;2022-11-04T04:58:18;99973.0;;;23.29;30.13
41383;BME280;27971;53.902;9.118;2022-11-04T05:00:20;99969.0;;;23.34;30.05
41383;BME280;27971;53.902;9.118;2022-11-04T05:02:22;99973.0;;;23.23;30.05
41383;BME280;27971;53.902;9.118;2022-11-04T05:04:25;99977.0;;;23.35;30.03
41383;BME280;27971;53.902;9.118;2022-11-04T05:06:27;99984.0;;;23.23;30.07
41383;BME280;27971;53.902;9.118;2022-11-04T05:08:29;99989.0;;;23.31;29.95
41383;BME280;27971;53.902;9.118;2022-11-04T05:10:32;99991.0;;;23.33;29.89
41383;BME280;27971;53.902;9.118;2022-11-04T05:12:35;99992.0;;;23.22;29.95
41383;BME280;27971;53.902;9.118;2022-11-04T05:14:37;99997.0;;;23.31;29.96
41383;BME280;27971;53.902;9.118;2022-11-04T05:16:41;99999.0;;;23.44;29.79
41383;BME280;27971;53.902;9.118;2022-11-04T05:18:44;100010.0;;;23.23;29.91
41383;BME280;27971;53.902;9.118;2022-11-04T05:20:46;100015.0;;;23.31;29.88
41383;BME280;27971;53.902;9.118;2022-11-04T05:22:50;100023.0;;;23.26;29.89
41383;BME280;27971;53.902;9.118;2022-11-04T05:24:52;100027.0;;;23.4;29.9
41383;BME280;27971;53.902;9.118;2022-11-04T05:26:55;100032.0;;;23.25;29.85
41383;BME280;27971;53.902;9.118;2022-11-04T05:28:57;100034.0;;;23.01;29.91
41383;BME280;27971;53.902;9.118;2022-11-04T05:31:02;100029.0;;;23.05;30.05
41383;BME280;27971;53.902;9.118;2022-11-04T05:33:04;100025.0;;;23.05;30.16
41383;BME280;27971;53.902;9.118;2022-11-04T05:35:06;100026.0;;;23.28;29.94
41383;BME280;27971;53.902;9.118;2022-11-04T05:37:09;100028.0;;;23.17;30.04
41383;BME280;27971;53.902;9.118;2022-11-04T05:39:13;100033.0;;;23.12;30.2
41383;BME280;27971;53.902;9.118;2022-11-04T05:41:15;100040.0;;;22.91;30.42
41383;BME280;27971;53.902;9.118;2022-11-04T05:43:17;100041.0;;;23.17;30.29
41383;BME280;27971;53.902;9.118;2022-11-04T05:45:19;100042.0;;;23.1;30.54
41383;BME280;27971;53.902;9.118;2022-11-04T05:47:22;100042.0;;;22.94;30.73
41383;BME280;27971;53.902;9.118;2022-11-04T05:49:24;100042.0;;;23.07;30.68
41383;BME280;27971;53.902;9.118;2022-11-04T05:51:27;100047.0;;;23.43;30.44
41383;BME280;27971;53.902;9.118;2022-11-04T05:53:30;100050.0;;;23.18;30.63
41383;BME280;27971;53.902;9.118;2022-11-04T05:55:32;100053.0;;;22.85;31.0
41383;BME280;27971;53.902;9.118;2022-11-04T05:57:34;100057.0;;;23.41;30.69
41383;BME280;27971;53.902;9.118;2022-11-04T05:59:38;100065.0;;;23.65;30.38
41383;BME280;27971;53.902;9.118;2022-11-04T06:01:41;100069.0;;;23.55;30.34
41383;BME280;27971;53.902;9.118;2022-11-04T06:03:43;100074.0;;;23.5;30.39
41383;BME280;27971;53.902;9.118;2022-11-04T06:05:47;100081.0;;;23.32;30.44
41383;BME280;27971;53.902;9.118;2022-11-04T06:07:50;100080.0;;;23.19;30.64
41383;BME280;27971;53.902;9.118;2022-11-04T06:09:53;100079.0;;;23.3;30.47
41383;BME280;27971;53.902;9.118;2022-11-04T06:11:57;100081.0;;;23.1;30.57
41383;BME280;27971;53.902;9.118;2022-11-04T06:14:00;100085.0;;;22.8;30.64
41383;BME280;27971;53.902;9.118;2022-11-04T06:16:03;100093.0;;;22.34;30.86
41383;BME280;27971;53.902;9.118;2022-11-04T06:18:05;100094.0;;;21.91;31.07
41383;BME280;27971;53.902;9.118;2022-11-04T06:20:09;100095.0;;;21.63;31.3
41383;BME280;27971;53.902;9.118;2022-11-04T06:22:12;100098.0;;;21.77;31.28
41383;BME280;27971;53.902;9.118;2022-11-04T06:24:13;100103.0;;;21.64;31.34
41383;BME280;27971;53.902;9.118;2022-11-04T06:26:17;100104.0;;;22.03;30.69
41383;BME280;27971;53.902;9.118;2022-11-04T06:28:19;100107.0;;;21.9;30.71
41383;BME280;27971;53.902;9.118;2022-11-04T06:30:23;100116.0;;;21.67;30.74
41383;BME280;27971;53.902;9.118;2022-11-04T06:32:26;100124.0;;;22.07;30.22
41383;BME280;27971;53.902;9.118;2022-11-04T06:34:28;100131.0;;;22.53;29.71
41383;BME280;27971;53.902;9.118;2022-11-04T06:36:30;100135.0;;;22.55;29.45
41383;BME280;27971;53.902;9.118;2022-11-04T06:38:34;100137.0;;;23.13;28.82
41383;BME280;27971;53.902;9.118;2022-11-04T06:40:36;100141.0;;;22.72;28.96
41383;BME280;27971;53.902;9.118;2022-11-04T06:42:38;100136.0;;;23.63;28.05
41383;BME280;27971;53.902;9.118;2022-11-04T06:44:41;100138.0;;;23.92;27.68
41383;BME280;27971;53.902;9.118;2022-11-04T06:46:45;100143.0;;;23.88;27.61
41383;BME280;27971;53.902;9.118;2022-11-04T06:48:47;100148.0;;;23.97;27.48
41383;BME280;27971;53.902;9.118;2022-11-04T06:50:49;100149.0;;;23.93;27.38
41383;BME280;27971;53.902;9.118;2022-11-04T06:52:52;100147.0;;;23.74;27.61
41383;BME280;27971;53.902;9.118;2022-11-04T06:54:54;100154.0;;;24.28;27.08
41383;BME280;27971;53.902;9.118;2022-11-04T06:56:58;100158.0;;;24.55;26.74
41383;BME280;27971;53.902;9.118;2022-11-04T06:59:02;100156.0;;;24.0;27.17
41383;BME280;27971;53.902;9.118;2022-11-04T07:01:04;100159.0;;;24.51;26.77
41383;BME280;27971;53.902;9.118;2022-11-04T07:03:08;100166.0;;;24.3;26.82
41383;BME280;27971;53.902;9.118;2022-11-04T07:05:09;100173.0;;;24.03;27.03
41383;BME280;27971;53.902;9.118;2022-11-04T07:07:11;100177.0;;;23.59;27.48
41383;BME280;27971;53.902;9.118;2022-11-04T07:09:15;100179.0;;;24.51;26.79
41383;BME280;27971;53.902;9.118;2022-11-04T07:11:18;100177.0;;;23.9;27.29
41383;BME280;27971;53.902;9.118;2022-11-04T07:13:20;100181.0;;;24.43;26.98
41383;BME280;27971;53.902;9.118;2022-11-04T07:15:22;100184.0;;;24.42;27.04
41383;BME280;27971;53.902;9.118;2022-11-04T07:17:25;100187.0;;;24.8;26.78
41383;BME280;27971;53.902;9.118;2022-11-04T07:19:28;100190.0;;;25.12;26.56
41383;BME280;27971;53.902;9.118;2022-11-04T07:21:32;100193.0;;;24.51;27.01
41383;BME280;27971;53.902;9.118;2022-11-04T07:23:34;100197.0;;;25.25;26.78
41383;BME280;27971;53.902;9.118;2022-11-04T07:25:38;100197.0;;;25.29;26.75
41383;BME280;27971;53.902;9.118;2022-11-04T07:27:40;100197.0;;;25.68;26.47
41383;BME280;27971;53.902;9.118;2022-11-04T07:29:42;100196.0;;;25.4;26.75
41383;BME280;27971;53.902;9.118;2022-11-04T07:31:45;100202.0;;;24.95;27.19
41383;BME280;27971;53.902;9.118;2022-11-04T07:33:49;100221.0;;;25.38;27.02
41383;BME280;27971;53.902;9.118;2022-11-04T07:35:51;100233.0;;;25.07;27.21
41383;BME280;27971;53.902;9.118;2022-11-04T07:37:54;100236.0;;;25.11;26.74
41383;BME280;27971;53.902;9.118;2022-11-04T07:39:56;100238.0;;;25.37;26.41
41383;BME280;27971;53.902;9.118;2022-11-04T07:42:00;100244.0;;;25.37;26.21
41383;BME280;27971;53.902;9.118;2022-11-04T07:44:02;100251.0;;;25.64;25.92
41383;BME280;27971;53.902;9.118;2022-11-04T07:46:06;100256.0;;;25.48;25.95
41383;BME280;27971;53.902;9.118;2022-11-04T07:48:07;100254.0;;;25.99;25.59
41383;BME280;27971;53.902;9.118;2022-11-04T07:50:10;100249.0;;;25.59;25.85
41383;BME280;27971;53.902;9.118;2022-11-04T07:52:12;100252.0;;;25.1;26.28
41383;BME280;27971;53.902;9.118;2022-11-04T07:54:14;100260.0;;;25.43;26.16
41383;BME280;27971;53.902;9.118;2022-11-04T07:56:17;100264.0;;;25.86;25.87
41383;BME280;27971;53.902;9.118;2022-11-04T07:58:20;100266.0;;;25.8;25.91
41383;BME280;27971;53.902;9.118;2022-11-04T08:00:22;100267.0;;;25.26;26.44
41383;BME280;27971;53.902;9.118;2022-11-04T08:02:24;100269.0;;;25.36;26.42
41383;BME280;27971;53.902;9.118;2022-11-04T08:04:26;100276.0;;;25.95;26.05
41383;BME280;27971;53.902;9.118;2022-11-04T08:06:29;100281.0;;;26.06;25.99
41383;BME280;27971;53.902;9.118;2022-11-04T08:08:32;100284.0;;;25.64;26.24
41383;BME280;27971;53.902;9.118;2022-11-04T08:10:35;100289.0;;;25.71;26.13
41383;BME280;27971;53.902;9.118;2022-11-04T08:12:37;100291.0;;;26.06;26.0
41383;BME280;27971;53.902;9.118;2022-11-04T08:14:40;100289.0;;;26.0;26.05
41383;BME280;27971;53.902;9.118;2022-11-04T08:16:42;100287.0;;;25.65;26.29
41383;BME280;27971;53.902;9.118;2022-11-04T08:18:46;100291.0;;;25.12;26.76
41383;BME280;27971;53.902;9.118;2022-11-04T08:20:48;100294.0;;;25.09;26.79
41383;BME280;27971;53.902;9.118;2022-11-04T08:22:51;100294.0;;;25.35;26.58
41383;BME280;27971;53.902;9.118;2022-11-04T08:24:54;100296.0;;;25.37;26.61
41383;BME280;27971;53.902;9.118;2022-11-04T08:26:56;100298.0;;;25.52;26.62
41383;BME280;27971;53.902;9.118;2022-11-04T08:28:59;100302.0;;;25.7;26.58
41383;BME280;27971;53.902;9.118;2022-11-04T08:31:03;100308.0;;;24.74;27.29
41383;BME280;27971;53.902;9.118;2022-11-04T08:33:03;100310.0;;;25.07;27.18
41383;BME280;27971;53.902;9.118;2022-11-04T08:35:06;100314.0;;;24.81;27.39
41383;BME280;27971;53.902;9.118;2022-11-04T08:37:08;100314.0;;;24.91;27.24
41383;BME280;27971;53.902;9.118;2022-11-04T08:39:11;100315.0;;;24.8;27.05
41383;BME280;27971;53.902;9.118;2022-11-04T08:41:16;100316.0;;;24.43;27.3
41383;BME280;27971;53.902;9.118;2022-11-04T08:43:16;100321.0;;;24.36;27.23
41383;BME280;27971;53.902;9.118;2022-11-04T08:45:18;100325.0;;;24.22;27.3
41383;BME280;27971;53.902;9.118;2022-11-04T08:47:22;100321.0;;;24.76;26.85
41383;BME280;27971;53.902;9.118;2022-11-04T08:49:25;100317.0;;;24.45;27.04
41383;BME280;27971;53.902;9.118;2022-11-04T08:51:29;100318.0;;;25.03;26.59
41383;BME280;27971;53.902;9.118;2022-11-04T08:53:31;100323.0;;;25.02;26.67
41383;BME280;27971;53.902;9.118;2022-11-04T08:55:33;100323.0;;;24.48;27.06
41383;BME280;27971;53.902;9.118;2022-11-04T08:57:36;100322.0;;;24.14;27.5
41383;BME280;27971;53.902;9.118;2022-11-04T08:59:39;100322.0;;;24.41;27.33
41383;BME280;27971;53.902;9.118;2022-11-04T09:01:41;100325.0;;;24.08;27.71
41383;BME280;27971;53.902;9.118;2022-11-04T09:03:43;100326.0;;;24.39;27.45
41383;BME280;27971;53.902;9.118;2022-11-04T09:05:47;100324.0;;;24.77;27.29
41383;BME280;27971;53.902;9.118;2022-11-04T09:07:49;100323.0;;;25.4;26.78
41383;BME280;27971;53.902;9.118;2022-11-04T09:09:51;100327.0;;;25.58;26.58
41383;BME280;27971;53.902;9.118;2022-11-04T09:11:55;100333.0;;;25.42;26.82
41383;BME280;27971;53.902;9.118;2022-11-04T09:13:59;100337.0;;;25.49;26.8
41383;BME280;27971;53.902;9.118;2022-11-04T09:16:00;100341.0;;;26.18;26.26
41383;BME280;27971;53.902;9.118;2022-11-04T09:18:03;100344.0;;;25.83;26.47
41383;BME280;27971;53.902;9.118;2022-11-04T09:20:06;100341.0;;;25.89;26.43
41383;BME280;27971;53.902;9.118;2022-11-04T09:22:09;100349.0;;;25.66;26.65
41383;BME280;27971;53.902;9.118;2022-11-04T09:24:11;100358.0;;;25.07;27.32
41383;BME280;27971;53.902;9.118;2022-11-04T09:26:14;100364.0;;;25.36;27.14
41383;BME280;27971;53.902;9.118;2022-11-04T09:28:16;100370.0;;;25.06;27.44
41383;BME280;27971;53.902;9.118;2022-11-04T09:30:18;100375.0;;;24.69;27.8
41383;BME280;27971;53.902;9.118;2022-11-04T09:32:20;100378.0;;;24.89;27.61
41383;BME280;27971;53.902;9.118;2022-11-04T09:34:23;100381.0;;;24.48;27.94
41383;BME280;27971;53.902;9.118;2022-11-04T09:36:25;100380.0;;;24.41;28.07
41383;BME280;27971;53.902;9.118;2022-11-04T09:38:27;100383.0;;;24.54;27.79
41383;BME280;27971;53.902;9.118;2022-11-04T09:40:34;100385.0;;;24.22;27.83
41383;BME280;27971;53.902;9.118;2022-11-04T09:42:42;100386.0;;;24.65;27.44
41383;BME280;27971;53.902;9.118;2022-11-04T09:44:43;100392.0;;;24.6;27.49
41383;BME280;27971;53.902;9.118;2022-11-04T09:46:39;100396.0;;;24.61;27.46
41383;BME280;27971;53.902;9.118;2022-11-04T09:48:46;100397.0;;;24.79;27.23
41383;BME280;27971;53.902;9.118;2022-11-04T09:50:49;100398.0;;;25.09;26.99
41383;BME280;27971;53.902;9.118;2022-11-04T09:52:52;100401.0;;;24.81;27.18
41383;BME280;27971;53.902;9.118;2022-11-04T09:54:55;100407.0;;;25.03;27.07
41383;BME280;27971;53.902;9.118;2022-11-04T09:56:55;100413.0;;;24.45;27.64
41383;BME280;27971;53.902;9.118;2022-11-04T09:58:56;100416.0;;;24.36;27.72
41383;BME280;27971;53.902;9.118;2022-11-04T10:01:02;100418.0;;;24.5;27.61
41383;BME280;27971;53.902;9.118;2022-11-04T10:03:14;100422.0;;;24.3;27.99
41383;BME280;27971;53.902;9.118;2022-11-04T10:05:13;100426.0;;;25.38;27.27
41383;BME280;27971;53.902;9.118;2022-11-04T10:07:18;100433.0;;;24.64;27.69
41383;BME280;27971;53.902;9.118;2022-11-04T10:09:18;100436.0;;;24.77;27.68
41383;BME280;27971;53.902;9.118;2022-11-04T10:11:19;100439.0;;;24.29;28.04
41383;BME280;27971;53.902;9.118;2022-11-04T10:13:23;100441.0;;;24.44;27.95
41383;BME280;27971;53.902;9.118;2022-11-04T10:15:42;100445.0;;;24.52;28.01
41383;BME280;27971;53.902;9.118;2022-11-04T10:17:34;100445.0;;;24.32;28.14
41383;BME280;27971;53.902;9.118;2022-11-04T10:19:34;100445.0;;;24.42;27.96
41383;BME280;27971;53.902;9.118;2022-11-04T10:21:34;100449.0;;;23.84;28.37
41383;BME280;27971;53.902;9.118;2022-11-04T10:23:32;100448.0;;;24.12;28.13
41383;BME280;27971;53.902;9.118;2022-11-04T10:25:37;100447.0;;;23.88;28.01
41383;BME280;27971;53.902;9.118;2022-11-04T10:27:36;100446.0;;;24.83;27.28
41383;BME280;27971;53.902;9.118;2022-11-04T10:29:41;100446.0;;;24.97;27.02
41383;BME280;27971;53.902;9.118;2022-11-04T10:31:42;100444.0;;;25.29;26.76
41383;BME280;27971;53.902;9.118;2022-11-04T10:33:46;100445.0;;;25.01;26.98
41383;BME280;27971;53.902;9.118;2022-11-04T10:35:47;100450.0;;;25.1;26.92
41383;BME280;27971;53.902;9.118;2022-11-04T10:37:51;100458.0;;;25.2;26.82
41383;BME280;27971;53.902;9.118;2022-11-04T10:39:54;100460.0;;;25.18;26.81
41383;BME280;27971;53.902;9.118;2022-11-04T10:41:53;100461.0;;;24.77;27.17
41383;BME280;27971;53.902;9.118;2022-11-04T10:44:00;100461.0;;;25.12;26.81
41383;BME280;27971;53.902;9.118;2022-11-04T10:46:08;100461.0;;;24.88;27.07
41383;BME280;27971;53.902;9.118;2022-11-04T10:48:05;100463.0;;;25.37;26.72
41383;BME280;27971;53.902;9.118;2022-11-04T10:50:19;100463.0;;;25.15;26.88
41383;BME280;27971;53.902;9.118;2022-11-04T10:52:08;100462.0;;;24.94;27.18
41383;BME280;27971;53.902;9.118;2022-11-04T10:54:10;100463.0;;;25.17;26.97
41383;BME280;27971;53.902;9.118;2022-11-04T10:56:18;100457.0;;;25.3;26.96
41383;BME280;27971;53.902;9.118;2022-11-04T10:58:20;100458.0;;;26.04;26.32
41383;BME280;27971;53.902;9.118;2022-11-04T11:00:35;100466.0;;;25.86;26.44